Startpagina
METAR-TAF:

METAR-TAF

Vliegvelden :

Oostende, België

Internationale Luchthaven Oostende-Brugge

breedte: 51-12N, lengte: 002-52E, hoogte: 4 m

Actueel weer

Dit bericht is 28 minuten geleden gemaakt, om 05:20 UTC
Wind 3 kt uit het oosten
Temperatuur -5°C
Vochtigheid 93%
Druk 1038 hPa
Zicht: 3000 m
nevel

METAR: EBOS 180520Z 09003KT 3000 BR NSC M05/M06 Q1038 TEMPO 2000 BR

Tijdstip: 06:48 (05:48 UTC)

Verwachting

Dit bericht is 48 minuten geleden gemaakt, om 05:00 UTC
Verwachting geldig van 18 om 06 UTC tot 19 om 12 UTC
Wind 5 kt uit het oosten
Zicht: 3000 m
nevel
Kans 30% :
Tijdelijke
van 18 om 06 UTC tot 18 om 08 UTC
Zicht: 1200 m
Gebroken wolken op 300 ft
mistbanken
Wijzigt naar
van 18 om 09 UTC tot 18 om 11 UTC
Zicht: 7000 m

TAF: EBOS 180500Z 1806/1912 08005KT 3000 BR NSC PROB30 TEMPO 1806/1808 1200 BCFG BKN003 BECMG 1809/1811 7000 NSW

Waarnemingen en weersverwachtingen van meer dan 4000 vliegvelden (METAR en TAF).

De beschikbare stations zijn de gele en rode punten op de kaart.

Ga met uw muis naar het station om de naam te zien.

Klik dan om waarnemingen en weersverwachtingen te zien.

kaart wijzigen: klik op de groene knoppen met een zwart kruis om in te zoomen, op de groene knop met een streepje om uit te zoomen of op de groene pijlen voor aangrenzende kaarten.


METAR-TAF: